Time;durP1;ratioP1;P1;durP2;ratioP2;P2;SDS_P1;SDS_P2;PMS_P1;PMS_P2;Temp;Humidity;BMP_temperature;BMP_pressure;BME280_temperature;BME280_humidity;BME280_pressure;Samples;Min_cycle;Max_cycle;Signal;HPM_P1;HPM_P2
2021/07/02 00:01:43;;;;;;;7.30;4.30;;;;;;;16.02;74.36;100358.91;1750794;81;21432;-72
2021/07/02 00:04:09;;;;;;;5.90;4.45;;;;;;;16.02;74.42;100354.05;1751840;81;21792;-72
2021/07/02 00:06:35;;;;;;;7.08;4.20;;;;;;;16.00;74.48;100354.27;1755738;81;21026;-72
2021/07/02 00:09:01;;;;;;;6.87;3.72;;;;;;;15.98;74.55;100352.28;1739188;81;20994;-72
2021/07/02 00:11:27;;;;;;;4.25;3.35;;;;;;;15.95;74.64;100350.01;1738947;81;21066;-72
2021/07/02 00:13:53;;;;;;;5.12;4.03;;;;;;;15.94;74.71;100351.03;1740114;81;21018;-72
2021/07/02 00:16:19;;;;;;;6.72;4.42;;;;;;;15.91;74.75;100346.91;1749493;81;21048;-72
2021/07/02 00:18:45;;;;;;;5.85;4.55;;;;;;;15.89;74.85;100347.64;1753352;81;21554;-72
2021/07/02 00:21:11;;;;;;;5.97;4.40;;;;;;;15.88;74.92;100349.17;1747323;81;21546;-72
2021/07/02 00:23:37;;;;;;;7.00;4.22;;;;;;;15.88;74.97;100341.94;1739933;81;21038;-72
2021/07/02 00:26:03;;;;;;;5.35;3.47;;;;;;;15.86;75.01;100334.61;1754272;81;21040;-72
2021/07/02 00:28:29;;;;;;;7.12;3.70;;;;;;;15.85;75.05;100333.45;1755892;81;21139;-72
2021/07/02 00:30:55;;;;;;;7.85;4.53;;;;;;;15.84;75.12;100333.13;1751452;81;21042;-72
2021/07/02 00:33:21;;;;;;;5.10;4.05;;;;;;;15.82;75.20;100329.83;1756113;81;20955;-72
2021/07/02 00:35:48;;;;;;;10.72;5.37;;;;;;;15.82;75.25;100332.52;1753483;81;21019;-73
2021/07/02 00:38:14;;;;;;;8.53;3.58;;;;;;;15.84;75.30;100325.06;1754317;81;21039;-72
2021/07/02 00:40:40;;;;;;;4.87;4.05;;;;;;;15.82;75.38;100327.14;1756401;81;21107;-72
2021/07/02 00:43:06;;;;;;;6.28;4.22;;;;;;;15.80;75.42;100323.81;1756339;81;21027;-72
2021/07/02 00:45:33;;;;;;;4.78;4.08;;;;;;;15.78;75.46;100323.20;1745908;81;21007;-72
2021/07/02 00:48:01;;;;;;;6.87;4.10;;;;;;;15.77;75.50;100324.23;1738880;82;21042;-72
2021/07/02 00:50:27;;;;;;;4.15;3.40;;;;;;;15.74;75.55;100325.98;1738312;81;21058;-72
2021/07/02 00:52:53;;;;;;;6.47;3.90;;;;;;;15.71;75.47;100321.02;1740951;81;21779;-73
2021/07/02 00:55:19;;;;;;;5.00;3.70;;;;;;;15.66;75.60;100319.45;1741479;81;20943;-72
2021/07/02 00:57:45;;;;;;;6.35;3.90;;;;;;;15.65;75.66;100320.51;1747307;81;21034;-72
2021/07/02 01:00:12;;;;;;;6.35;4.53;;;;;;;15.62;75.70;100323.61;1739644;81;21013;-72
2021/07/02 01:02:38;;;;;;;7.37;3.40;;;;;;;15.59;75.73;100320.79;1751520;81;21070;-72
2021/07/02 01:05:06;;;;;;;4.83;3.20;;;;;;;15.58;75.78;100315.64;1753463;81;21011;-72
2021/07/02 01:07:33;;;;;;;5.03;3.50;;;;;;;15.57;75.84;100313.97;1748631;81;20978;-72
2021/07/02 01:09:59;;;;;;;6.10;3.98;;;;;;;15.57;75.92;100322.03;1712268;81;21013;-72
2021/07/02 01:12:25;;;;;;;6.60;3.87;;;;;;;15.52;75.95;100311.09;1756363;81;21023;-72
2021/07/02 01:14:52;;;;;;;5.22;3.83;;;;;;;15.48;75.99;100316.01;1750452;81;21519;-72
2021/07/02 01:17:18;;;;;;;4.87;3.22;;;;;;;15.45;76.05;100315.05;1741506;81;21796;-72
2021/07/02 01:19:49;;;;;;;5.78;3.33;;;;;;;15.43;76.11;100319.30;1750960;81;21565;-72
2021/07/02 01:22:20;;;;;;;8.28;3.65;;;;;;;15.42;76.17;100316.80;1738916;82;21046;-71
2021/07/02 01:24:46;;;;;;;5.40;3.98;;;;;;;15.40;76.18;100319.70;1739176;81;21559;-72
2021/07/02 01:27:12;;;;;;;18.48;3.98;;;;;;;15.40;76.24;100314.33;1738846;82;21059;-72
2021/07/02 01:29:39;;;;;;;4.90;3.27;;;;;;;15.41;76.36;100309.25;1740282;81;21201;-72
2021/07/02 01:32:06;;;;;;;5.33;3.90;;;;;;;15.38;76.40;100312.86;1748405;81;20975;-72
2021/07/02 01:34:32;;;;;;;5.65;3.75;;;;;;;15.34;76.48;100308.95;1738779;81;21069;-72
2021/07/02 01:36:58;;;;;;;7.25;4.15;;;;;;;15.31;76.55;100312.01;1752566;81;21002;-72
2021/07/02 01:39:24;;;;;;;6.30;3.90;;;;;;;15.26;76.64;100311.30;1751236;81;21018;-71
2021/07/02 01:41:50;;;;;;;5.70;4.17;;;;;;;15.22;76.70;100322.13;1738774;81;21139;-72
2021/07/02 01:44:16;;;;;;;11.83;3.83;;;;;;;15.15;76.75;100305.16;1738808;82;21019;-72
2021/07/02 01:46:42;;;;;;;5.72;3.90;;;;;;;15.15;76.67;100305.16;1738839;82;20971;-72
2021/07/02 01:49:08;;;;;;;5.62;3.70;;;;;;;15.11;76.96;100306.59;1738405;82;21010;-72
2021/07/02 01:51:34;;;;;;;3.67;3.30;;;;;;;14.96;77.05;100285.76;1738990;82;21065;-71
2021/07/02 01:54:00;;;;;;;4.53;3.70;;;;;;;15.08;77.10;100304.31;1732114;82;21703;-72
2021/07/02 01:56:27;;;;;;;5.25;3.45;;;;;;;15.06;77.17;100311.72;1716391;83;21516;-72
2021/07/02 01:58:54;;;;;;;6.60;4.00;;;;;;;15.04;77.25;100311.11;1722514;83;21476;-72
2021/07/02 02:01:20;;;;;;;4.50;3.65;;;;;;;15.06;77.29;100317.09;1714657;82;21048;-71
2021/07/02 02:03:47;;;;;;;5.33;3.85;;;;;;;15.05;77.41;100315.97;1717356;83;21095;-72
2021/07/02 02:06:14;;;;;;;6.37;4.85;;;;;;;15.06;77.49;100318.98;1720180;83;21275;-72
2021/07/02 02:08:40;;;;;;;11.10;6.65;;;;;;;15.06;77.55;100317.09;1720381;83;20996;-72
2021/07/02 02:11:06;;;;;;;10.65;5.80;;;;;;;15.07;77.63;100316.08;1720337;83;21008;-72
2021/07/02 02:13:32;;;;;;;10.25;4.97;;;;;;;15.08;78.02;100311.53;1721870;83;20993;-72
2021/07/02 02:15:58;;;;;;;10.00;5.17;;;;;;;15.08;78.02;100311.53;1721781;82;21001;-72
2021/07/02 02:18:24;;;;;;;7.20;4.37;;;;;;;15.05;77.78;100306.57;1721799;82;21153;-72
2021/07/02 02:20:50;;;;;;;6.17;3.87;;;;;;;14.99;77.84;100309.52;1720418;82;20976;-72
2021/07/02 02:23:16;;;;;;;7.28;4.22;;;;;;;14.97;77.90;100307.06;1716986;83;21531;-72
2021/07/02 02:25:42;;;;;;;8.90;4.37;;;;;;;14.97;77.95;100311.59;1712497;83;21437;-72
2021/07/02 02:28:08;;;;;;;8.13;6.03;;;;;;;14.87;78.00;100293.69;1718169;83;21052;-72
2021/07/02 02:30:36;;;;;;;12.63;7.00;;;;;;;14.85;78.03;100288.50;1714608;83;21154;-72
2021/07/02 02:33:05;;;;;;;6.72;3.50;;;;;;;14.97;78.07;100316.97;1719331;83;21476;-72
2021/07/02 02:35:33;;;;;;;5.33;3.75;;;;;;;15.00;78.14;100315.22;1692836;84;21006;-72
2021/07/02 02:37:59;;;;;;;5.67;3.83;;;;;;;15.01;78.19;100314.20;1693600;83;21034;-72
2021/07/02 02:40:25;;;;;;;5.37;3.58;;;;;;;15.00;78.27;100314.71;1703613;83;21087;-72
2021/07/02 02:42:51;;;;;;;5.97;3.45;;;;;;;15.00;78.41;100310.68;1712461;82;21142;-72
2021/07/02 02:45:17;;;;;;;4.65;3.60;;;;;;;15.00;78.41;100310.68;1716150;83;21090;-72
2021/07/02 02:47:43;;;;;;;8.40;3.95;;;;;;;14.98;78.52;100314.61;1720378;83;20968;-72
2021/07/02 02:50:09;;;;;;;6.40;3.47;;;;;;;14.98;78.52;100314.61;1714112;82;20993;-72
2021/07/02 02:52:35;;;;;;;10.60;3.80;;;;;;;14.92;78.46;100305.47;1715698;83;21054;-72
2021/07/02 02:55:01;;;;;;;11.45;4.00;;;;;;;14.90;78.39;100295.97;1745951;80;21141;-72
2021/07/02 02:57:27;;;;;;;7.45;3.67;;;;;;;14.99;78.43;100318.92;1757082;81;20964;-72
2021/07/02 02:59:53;;;;;;;5.97;3.42;;;;;;;14.99;78.43;100318.92;1757746;81;21039;-72
2021/07/02 03:02:19;;;;;;;6.45;4.70;;;;;;;14.97;78.52;100326.36;1757913;80;21031;-72
2021/07/02 03:04:45;;;;;;;6.97;4.47;;;;;;;14.97;78.71;100334.42;1757243;81;21003;-72
2021/07/02 03:07:11;;;;;;;9.53;4.83;;;;;;;14.96;78.71;100334.09;1758180;81;21115;-72
2021/07/02 03:09:37;;;;;;;5.53;4.22;;;;;;;14.87;78.70;100317.86;1757327;81;21022;-72
2021/07/02 03:12:04;;;;;;;6.42;4.12;;;;;;;14.94;78.73;100326.77;1757007;81;20979;-72
2021/07/02 03:14:30;;;;;;;7.33;5.30;;;;;;;14.97;78.74;100338.45;1757251;81;20994;-72
2021/07/02 03:16:56;;;;;;;6.25;4.28;;;;;;;14.87;78.75;100321.88;1758858;81;21456;-72
2021/07/02 03:19:23;;;;;;;5.08;3.98;;;;;;;14.87;78.75;100321.88;1759172;81;21444;-72
2021/07/02 03:21:49;;;;;;;6.08;4.42;;;;;;;14.99;78.80;100338.55;1758977;81;20936;-72
2021/07/02 03:24:15;;;;;;;4.62;3.72;;;;;;;14.93;78.83;100331.31;1757308;81;21043;-72
2021/07/02 03:26:41;;;;;;;6.33;4.17;;;;;;;15.04;79.14;100340.66;1757472;81;20972;-72
2021/07/02 03:29:07;;;;;;;7.62;3.80;;;;;;;15.04;79.14;100340.66;1756154;81;21057;-72
2021/07/02 03:31:33;;;;;;;8.13;3.85;;;;;;;15.05;78.95;100339.63;1755886;81;21674;-72
2021/07/02 03:34:00;;;;;;;6.03;3.98;;;;;;;15.09;78.99;100347.61;1758695;81;21083;-72
2021/07/02 03:36:26;;;;;;;6.17;3.77;;;;;;;15.10;78.95;100347.91;1757132;81;21039;-72
2021/07/02 03:38:52;;;;;;;7.92;4.20;;;;;;;15.11;79.00;100342.85;1757281;81;21003;-72
2021/07/02 03:41:18;;;;;;;6.97;4.10;;;;;;;15.13;79.03;100343.47;1758081;81;20990;-72
2021/07/02 03:43:44;;;;;;;5.75;4.58;;;;;;;15.14;79.04;100342.95;1758893;81;21125;-72
2021/07/02 03:46:10;;;;;;;6.80;5.00;;;;;;;15.13;79.04;100344.01;1758623;80;20971;-72
2021/07/02 03:48:36;;;;;;;8.08;4.47;;;;;;;15.02;79.03;100327.95;1754129;81;21120;-72
2021/07/02 03:51:02;;;;;;;7.58;5.03;;;;;;;15.03;79.04;100325.55;1756595;81;20978;-72
2021/07/02 03:53:29;;;;;;;9.00;5.00;;;;;;;15.01;79.04;100327.63;1758323;81;21495;-72
2021/07/02 03:55:55;;;;;;;7.37;4.35;;;;;;;15.01;79.04;100327.63;1757640;81;21789;-72
2021/07/02 03:58:21;;;;;;;8.35;4.95;;;;;;;15.11;79.05;100338.83;1754149;81;21035;-72
2021/07/02 04:00:47;;;;;;;6.12;4.12;;;;;;;15.10;79.16;100347.06;1754627;81;20987;-72
2021/07/02 04:03:15;;;;;;;8.70;4.70;;;;;;;15.10;79.16;100347.06;1755594;81;21070;-72
2021/07/02 04:05:44;;;;;;;6.15;4.55;;;;;;;15.11;79.10;100350.91;1757388;81;20932;-72
2021/07/02 04:08:10;;;;;;;8.58;4.85;;;;;;;15.15;79.11;100346.80;1756948;81;21264;-72
2021/07/02 04:10:36;;;;;;;11.08;4.58;;;;;;;15.21;79.12;100344.64;1757820;81;21479;-72
2021/07/02 04:13:03;;;;;;;7.92;4.78;;;;;;;15.24;79.14;100346.09;1754914;81;21011;-72
2021/07/02 04:15:29;;;;;;;9.30;5.15;;;;;;;15.26;79.13;100344.88;1757142;81;20987;-72
2021/07/02 04:17:55;;;;;;;6.80;4.95;;;;;;;15.29;79.17;100354.39;1751851;80;21054;-72
2021/07/02 04:20:21;;;;;;;7.40;5.72;;;;;;;15.32;79.13;100346.75;1758231;81;21141;-71
2021/07/02 04:22:47;;;;;;;9.50;5.80;;;;;;;15.33;79.13;100349.77;1757609;81;21066;-72
2021/07/02 04:25:13;;;;;;;8.28;5.37;;;;;;;15.33;79.12;100348.42;1758870;81;20971;-72
2021/07/02 04:27:40;;;;;;;11.22;6.12;;;;;;;15.33;79.11;100343.05;1758842;81;21014;-72
2021/07/02 04:30:08;;;;;;;10.38;6.30;;;;;;;15.35;79.12;100338.80;1757505;81;21003;-72
2021/07/02 04:32:36;;;;;;;11.20;6.60;;;;;;;15.38;79.12;100345.94;1757184;80;21557;-72
2021/07/02 04:35:05;;;;;;;9.50;6.42;;;;;;;15.43;79.10;100342.14;1758866;81;21043;-72
2021/07/02 04:37:31;;;;;;;9.10;6.50;;;;;;;15.49;79.07;100342.70;1759029;80;20980;-71
2021/07/02 04:39:57;;;;;;;11.97;6.58;;;;;;;15.54;79.08;100346.64;1759030;81;20976;-72
2021/07/02 04:42:23;;;;;;;12.43;6.78;;;;;;;15.61;79.07;100336.73;1758617;81;20995;-72
2021/07/02 04:44:49;;;;;;;9.25;6.75;;;;;;;15.68;79.01;100345.64;1758855;81;21151;-72
2021/07/02 04:47:15;;;;;;;14.83;6.62;;;;;;;15.78;79.02;100343.38;1758591;81;20984;-72
2021/07/02 04:49:41;;;;;;;12.18;7.08;;;;;;;15.85;79.00;100345.55;1758871;81;21562;-72
2021/07/02 04:52:07;;;;;;;10.38;7.78;;;;;;;15.83;78.94;100345.75;1758866;81;21484;-72
2021/07/02 04:54:33;;;;;;;12.37;8.23;;;;;;;15.79;78.91;100349.91;1759796;81;20971;-72
2021/07/02 04:57:01;;;;;;;14.40;8.30;;;;;;;15.76;78.93;100348.14;1724610;83;21090;-72
2021/07/02 04:59:34;;;;;;;13.98;9.33;;;;;;;15.70;78.91;100342.22;1756117;81;21152;-72
2021/07/02 05:01:56;;;;;;;14.18;8.70;;;;;;;15.69;78.86;100349.98;1754338;81;21487;-72
2021/07/02 05:04:22;;;;;;;12.93;8.73;;;;;;;15.68;78.86;100345.13;1755459;81;20999;-72
2021/07/02 05:06:49;;;;;;;12.78;8.90;;;;;;;15.62;78.81;100346.46;1755927;81;21004;-72
2021/07/02 05:09:15;;;;;;;15.28;9.88;;;;;;;15.58;78.79;100347.89;1756939;81;21143;-72
2021/07/02 05:11:41;;;;;;;12.25;8.60;;;;;;;15.54;78.78;100347.47;1756799;81;20983;-72
2021/07/02 05:14:08;;;;;;;14.30;9.43;;;;;;;15.57;78.77;100361.02;1756607;81;20984;-72
2021/07/02 05:16:34;;;;;;;14.38;9.90;;;;;;;15.62;78.80;100355.87;1756062;81;21484;-72
2021/07/02 05:19:00;;;;;;;13.38;9.38;;;;;;;15.64;78.79;100359.17;1752668;81;21046;-72
2021/07/02 05:21:26;;;;;;;15.20;10.40;;;;;;;15.68;79.08;100357.22;1741828;81;21163;-72
2021/07/02 05:23:52;;;;;;;17.17;11.10;;;;;;;15.71;78.81;100360.02;1756818;81;21027;-72
2021/07/02 05:26:18;;;;;;;15.95;10.80;;;;;;;15.68;78.78;100364.45;1753088;81;21034;-72
2021/07/02 05:28:44;;;;;;;18.85;11.53;;;;;;;15.66;78.77;100365.99;1741850;82;21007;-72
2021/07/02 05:31:10;;;;;;;15.58;10.70;;;;;;;15.62;78.79;100362.05;1741711;82;21026;-72
2021/07/02 05:33:36;;;;;;;18.32;9.90;;;;;;;15.60;78.80;100361.95;1741556;82;21089;-72
2021/07/02 05:36:03;;;;;;;18.32;10.75;;;;;;;15.60;78.81;100362.78;1741699;82;21007;-72
2021/07/02 05:38:29;;;;;;;14.33;9.80;;;;;;;15.64;78.78;100363.20;1754971;81;20991;-72
2021/07/02 05:40:55;;;;;;;16.77;9.53;;;;;;;15.66;78.80;100359.27;1756844;81;21019;-72
2021/07/02 05:43:24;;;;;;;13.50;9.18;;;;;;;15.67;78.81;100352.03;1756896;81;20995;-72
2021/07/02 05:45:50;;;;;;;13.05;9.90;;;;;;;15.72;78.83;100349.06;1756975;81;21134;-71
2021/07/02 05:48:18;;;;;;;17.05;9.28;;;;;;;15.76;78.85;100352.17;1756756;81;20991;-71
2021/07/02 05:50:48;;;;;;;13.70;9.18;;;;;;;15.79;78.83;100351.25;1756797;81;21492;-72
2021/07/02 05:53:17;;;;;;;16.70;10.10;;;;;;;15.79;78.87;100351.25;1757077;81;21011;-72
2021/07/02 05:55:43;;;;;;;13.00;10.05;;;;;;;15.78;78.87;100354.12;1756338;81;20999;-72
2021/07/02 05:58:10;;;;;;;15.35;9.95;;;;;;;15.79;78.92;100347.73;1747517;81;21196;-72
2021/07/02 06:00:36;;;;;;;18.00;10.38;;;;;;;15.80;78.93;100346.67;1738890;81;21851;-72
2021/07/02 06:03:02;;;;;;;13.83;9.53;;;;;;;15.83;78.92;100344.40;1730221;81;20984;-72
2021/07/02 06:05:28;;;;;;;14.45;9.10;;;;;;;15.79;78.92;100345.04;1750152;81;21084;-72
2021/07/02 06:07:55;;;;;;;15.65;9.55;;;;;;;15.76;78.95;100350.83;1734262;82;21054;-72
2021/07/02 06:10:24;;;;;;;13.48;9.15;;;;;;;15.74;78.95;100351.02;1761215;81;21188;-72
2021/07/02 06:12:50;;;;;;;13.58;8.85;;;;;;;15.76;78.97;100349.48;1762727;80;21042;-72
2021/07/02 06:15:17;;;;;;;19.23;9.23;;;;;;;15.80;78.98;100352.05;1763490;80;21026;-72
2021/07/02 06:17:45;;;;;;;15.05;10.08;;;;;;;15.81;79.00;100348.34;1781105;80;20976;-72
2021/07/02 06:20:13;;;;;;;12.05;9.23;;;;;;;15.79;78.99;100350.42;1776278;80;21352;-72
2021/07/02 06:22:39;;;;;;;15.68;10.58;;;;;;;15.79;79.00;100357.14;1777444;80;21239;-72
2021/07/02 06:25:07;;;;;;;15.68;10.45;;;;;;;15.79;79.04;100361.17;1766739;80;21476;-72
2021/07/02 06:27:33;;;;;;;15.08;9.98;;;;;;;15.74;79.02;100361.77;1764306;81;21022;-72
2021/07/02 06:29:59;;;;;;;14.83;10.40;;;;;;;15.73;78.73;100359.28;1771626;80;20979;-72
2021/07/02 06:32:25;;;;;;;17.30;10.43;;;;;;;15.69;79.06;100360.20;1780176;79;21040;-72
2021/07/02 06:34:52;;;;;;;17.07;10.53;;;;;;;15.68;79.12;100367.14;1762929;81;21131;-72
2021/07/02 06:37:18;;;;;;;15.83;10.15;;;;;;;15.65;79.13;100367.05;1763019;81;21523;-72
2021/07/02 06:39:44;;;;;;;14.55;10.25;;;;;;;15.69;79.16;100367.47;1762566;80;21046;-73
2021/07/02 06:42:10;;;;;;;18.77;10.05;;;;;;;15.75;79.18;100371.51;1741857;79;21480;-72
2021/07/02 06:44:36;;;;;;;18.45;10.63;;;;;;;15.78;79.18;100368.41;1781170;79;21494;-72
2021/07/02 06:47:03;;;;;;;14.58;10.63;;;;;;;15.79;79.20;100375.96;1782876;80;21927;-72
2021/07/02 06:49:29;;;;;;;17.02;11.22;;;;;;;15.83;79.21;100371.30;1770214;80;21544;-73
2021/07/02 06:51:55;;;;;;;16.75;11.65;;;;;;;15.88;79.23;100373.38;1773662;80;21047;-73
2021/07/02 06:54:21;;;;;;;16.42;10.95;;;;;;;15.94;79.21;100375.23;1768966;80;21026;-73
2021/07/02 06:57:08;;;;;;;19.25;11.88;;;;;;;15.97;79.20;100370.82;1771474;80;21058;-72
2021/07/02 06:59:37;;;;;;;16.65;10.35;;;;;;;16.00;79.18;100382.52;1767139;80;21547;-72
2021/07/02 07:02:03;;;;;;;17.48;9.53;;;;;;;15.99;79.17;100382.19;1760141;80;21490;-73
2021/07/02 07:04:34;;;;;;;15.25;9.88;;;;;;;16.00;79.20;100378.48;1762109;81;21014;-72
2021/07/02 07:06:57;;;;;;;16.75;10.65;;;;;;;16.07;79.21;100387.38;1767217;80;20996;-72
2021/07/02 07:09:23;;;;;;;16.17;10.70;;;;;;;16.11;79.19;100392.67;1763540;80;21046;-72
2021/07/02 07:11:50;;;;;;;15.95;9.60;;;;;;;16.11;79.16;100394.02;1762465;81;21080;-72
2021/07/02 07:14:16;;;;;;;14.78;10.15;;;;;;;16.15;79.18;100389.84;1762725;81;21058;-72
2021/07/02 07:16:42;;;;;;;19.12;11.33;;;;;;;16.14;79.17;100393.59;1763138;81;21813;-72
2021/07/02 07:19:08;;;;;;;16.07;10.53;;;;;;;16.20;79.17;100395.97;1764129;80;21510;-73
2021/07/02 07:21:34;;;;;;;29.18;12.28;;;;;;;16.24;79.16;100400.73;1762580;80;21124;-72
2021/07/02 07:24:00;;;;;;;15.78;10.70;;;;;;;16.28;79.15;100400.64;1749641;81;21098;-72
2021/07/02 07:26:26;;;;;;;16.15;10.32;;;;;;;16.31;79.12;100402.91;1724930;82;21053;-72
2021/07/02 07:28:52;;;;;;;14.43;10.60;;;;;;;16.31;79.05;100395.35;1740077;82;21045;-72
2021/07/02 07:31:18;;;;;;;18.00;10.03;;;;;;;16.29;79.05;100399.58;1740214;82;21433;-72
2021/07/02 07:33:47;;;;;;;14.80;9.83;;;;;;;16.32;79.04;100399.20;1747556;80;21056;-72
2021/07/02 07:36:15;;;;;;;14.87;10.25;;;;;;;16.34;79.04;100401.15;1740325;82;21220;-72
2021/07/02 07:38:40;;;;;;;13.45;9.25;;;;;;;16.37;78.98;100404.77;1739716;82;21025;-72
2021/07/02 07:41:06;;;;;;;14.15;10.03;;;;;;;16.37;78.96;100405.28;1741160;82;21084;-73
2021/07/02 07:43:34;;;;;;;15.13;10.28;;;;;;;16.36;78.97;100413.06;1744922;81;21063;-72
2021/07/02 07:46:01;;;;;;;15.13;10.78;;;;;;;16.37;78.97;100408.80;1743247;81;21144;-73
2021/07/02 07:48:27;;;;;;;17.92;10.78;;;;;;;16.31;78.90;100410.16;1743002;81;21879;-73
2021/07/02 07:51:02;;;;;;;15.30;9.68;;;;;;;16.27;78.87;100409.74;1760246;81;21351;-73
2021/07/02 07:53:21;;;;;;;21.95;10.20;;;;;;;16.28;78.87;100413.27;1759019;81;21456;-73
2021/07/02 07:55:49;;;;;;;15.95;9.95;;;;;;;16.27;78.87;100416.47;1768326;80;21035;-73
2021/07/02 07:58:15;;;;;;;15.13;10.03;;;;;;;16.22;78.85;100412.20;1769449;80;21057;-73
2021/07/02 08:00:41;;;;;;;15.28;9.65;;;;;;;16.20;78.87;100412.95;1760714;80;22031;-73
2021/07/02 08:03:07;;;;;;;14.05;9.83;;;;;;;16.19;78.90;100411.28;1758513;80;21084;-73
2021/07/02 08:05:33;;;;;;;13.55;9.50;;;;;;;16.20;78.91;100418.33;1706342;84;21061;-72
2021/07/02 08:07:59;;;;;;;17.73;11.03;;;;;;;16.18;78.92;100419.06;1736765;80;21086;-73
2021/07/02 08:10:26;;;;;;;12.43;10.10;;;;;;;16.16;78.97;100419.77;1751302;80;21064;-72
2021/07/02 08:12:52;;;;;;;18.60;11.75;;;;;;;16.16;79.01;100422.45;1764163;80;21043;-73
2021/07/02 08:15:18;;;;;;;15.93;10.40;;;;;;;16.21;79.02;100424.55;1743441;80;21082;-73
2021/07/02 08:17:45;;;;;;;13.83;9.63;;;;;;;16.25;79.02;100424.45;1737733;82;21526;-73
2021/07/02 08:20:12;;;;;;;14.25;10.28;;;;;;;16.30;79.04;100426.81;1752031;80;21033;-73
2021/07/02 08:22:38;;;;;;;16.67;9.45;;;;;;;16.29;79.02;100426.50;1769782;80;21067;-73
2021/07/02 08:25:05;;;;;;;21.17;9.83;;;;;;;16.30;79.02;100429.51;1766941;80;21233;-73
2021/07/02 08:29:22;;;;;;;15.75;10.08;;;;;;;16.31;79.03;100425.79;1754619;80;20991;-73
2021/07/02 08:30:03;;;;;;;13.25;9.93;;;;;;;16.34;79.02;100423.20;1763684;80;21132;-73
2021/07/02 08:32:29;;;;;;;15.00;9.73;;;;;;;16.42;79.06;100427.03;1733787;81;21025;-72
2021/07/02 08:34:55;;;;;;;15.00;10.20;;;;;;;16.50;79.04;100426.30;1763829;80;21855;-72
2021/07/02 08:37:21;;;;;;;19.17;10.10;;;;;;;16.56;79.04;100426.55;1755635;80;21841;-72
2021/07/02 08:39:49;;;;;;;15.85;10.98;;;;;;;16.59;79.00;100427.47;1731976;81;21590;-72
2021/07/02 08:42:15;;;;;;;13.03;9.15;;;;;;;16.63;78.97;100416.08;1740546;82;21050;-72
2021/07/02 08:44:41;;;;;;;13.45;8.93;;;;;;;16.61;78.92;100422.69;1760811;80;20999;-72
2021/07/02 08:47:08;;;;;;;18.07;10.23;;;;;;;16.60;78.90;100431.31;1761109;81;21100;-73
2021/07/02 08:49:34;;;;;;;14.68;8.60;;;;;;;16.63;78.86;100432.24;1766844;80;21790;-73
2021/07/02 08:52:00;;;;;;;11.70;7.58;;;;;;;16.63;78.81;100434.10;1764041;80;21042;-73
2021/07/02 08:54:26;;;;;;;12.88;7.75;;;;;;;16.63;78.78;100434.10;1756416;81;21025;-73
2021/07/02 08:56:58;;;;;;;9.25;6.47;;;;;;;16.64;78.79;100430.37;1760054;80;20987;-72
2021/07/02 08:59:25;;;;;;;10.00;6.83;;;;;;;16.67;78.79;100428.09;1755542;80;21093;-72
2021/07/02 09:01:52;;;;;;;10.93;6.83;;;;;;;16.71;78.78;100428.51;1752408;80;21130;-72
2021/07/02 09:04:34;;;;;;;10.93;7.60;;;;;;;16.71;78.75;100431.20;1761989;80;21045;-73
2021/07/02 09:07:09;;;;;;;8.58;6.80;;;;;;;16.70;78.72;100429.53;1760174;80;21026;-72
2021/07/02 09:09:53;;;;;;;10.70;7.37;;;;;;;16.69;78.67;100431.91;1756052;80;21106;-72
2021/07/02 09:12:28;;;;;;;8.93;6.47;;;;;;;16.65;78.67;100427.98;1729670;81;21030;-72
2021/07/02 09:15:04;;;;;;;11.97;6.72;;;;;;;16.65;78.64;100429.32;1729365;81;21830;-72
2021/07/02 09:17:30;;;;;;;7.83;6.15;;;;;;;16.68;78.63;100428.90;1748318;81;21035;-72
2021/07/02 09:20:06;;;;;;;8.03;5.58;;;;;;;16.65;78.62;100432.02;1729997;82;21635;-72
2021/07/02 09:22:52;;;;;;;7.25;6.45;;;;;;;16.68;78.65;100428.90;1729285;81;20995;-72
2021/07/02 09:25:23;;;;;;;8.05;6.55;;;;;;;16.68;78.67;100432.94;1739275;80;21103;-72
2021/07/02 09:27:52;;;;;;;9.63;6.50;;;;;;;16.74;78.72;100427.58;1754940;80;21241;-72
2021/07/02 09:30:21;;;;;;;9.23;6.78;;;;;;;16.87;78.75;100430.75;1770266;80;21065;-72
2021/07/02 09:32:52;;;;;;;8.95;6.62;;;;;;;16.97;78.76;100431.14;1771491;80;20997;-72
2021/07/02 09:35:19;;;;;;;7.12;5.42;;;;;;;17.02;78.77;100439.44;1764933;80;21511;-72
2021/07/02 09:37:54;;;;;;;5.78;5.08;;;;;;;17.06;78.73;100438.50;1763582;80;21018;-72
2021/07/02 09:40:28;;;;;;;5.85;4.37;;;;;;;17.05;78.73;100434.97;1756743;81;21539;-72
2021/07/02 09:43:10;;;;;;;6.78;4.83;;;;;;;17.07;78.72;100441.48;1758657;80;21079;-72
2021/07/02 09:45:50;;;;;;;6.70;4.92;;;;;;;17.04;78.73;100438.69;1750402;79;21151;-72
2021/07/02 09:48:18;;;;;;;5.85;4.58;;;;;;;16.96;78.74;100442.95;1759519;81;21497;-72
2021/07/02 09:50:51;;;;;;;7.25;4.78;;;;;;;16.95;78.78;100439.97;1759612;80;20994;-72
2021/07/02 09:53:28;;;;;;;8.15;4.50;;;;;;;17.03;78.84;100434.88;1758721;80;21149;-72
2021/07/02 09:56:11;;;;;;;5.72;4.40;;;;;;;17.10;78.82;100440.53;1745461;80;21059;-72
2021/07/02 09:58:41;;;;;;;12.00;8.48;;;;;;;17.25;78.87;100435.73;1746289;80;21018;-73
2021/07/02 10:01:09;;;;;;;6.08;4.83;;;;;;;17.29;78.84;100438.83;1741955;80;21038;-72
2021/07/02 10:03:41;;;;;;;7.40;6.28;;;;;;;17.27;78.81;100435.02;1762289;81;21005;-72
2021/07/02 10:06:14;;;;;;;41.80;24.65;;;;;;;17.21;78.80;100441.23;1762563;81;21153;-73
2021/07/02 10:08:39;;;;;;;12.47;8.23;;;;;;;17.18;78.76;100438.97;1758000;81;21511;-72
2021/07/02 10:11:08;;;;;;;8.88;3.62;;;;;;;17.14;78.77;100437.73;1762473;80;21542;-73
2021/07/02 10:13:37;;;;;;;6.17;4.00;;;;;;;17.21;78.81;100435.84;1762878;80;21333;-72
2021/07/02 10:16:05;;;;;;;3.42;2.85;;;;;;;17.33;78.81;100444.95;1759021;80;21093;-72
2021/07/02 10:18:33;;;;;;;4.50;2.60;;;;;;;17.37;78.75;100438.09;1761077;80;21547;-72
2021/07/02 10:21:01;;;;;;;3.35;2.50;;;;;;;17.41;78.73;100439.33;1763359;81;20998;-72
2021/07/02 10:23:34;;;;;;;7.90;3.33;;;;;;;17.55;78.71;100432.00;1761177;80;21120;-73
2021/07/02 10:26:02;;;;;;;5.72;3.10;;;;;;;17.73;78.65;100429.43;1754974;81;21046;-72
2021/07/02 10:28:29;;;;;;;6.05;3.65;;;;;;;17.82;78.53;100436.77;1761299;81;21006;-72
2021/07/02 10:30:56;;;;;;;3.52;3.02;;;;;;;17.78;78.44;100439.58;1762248;81;21116;-72
2021/07/02 10:33:28;;;;;;;8.18;3.10;;;;;;;17.71;78.40;100438.27;1762067;81;21037;-72
2021/07/02 10:35:58;;;;;;;6.37;3.10;;;;;;;17.65;78.35;100447.75;1762412;81;21046;-72
2021/07/02 10:38:32;;;;;;;3.05;2.75;;;;;;;17.60;78.31;100439.46;1762925;81;21062;-72
2021/07/02 10:41:16;;;;;;;4.85;3.52;;;;;;;17.60;78.27;100444.34;1761666;81;21038;-72
2021/07/02 10:44:10;;;;;;;5.72;3.80;;;;;;;17.62;78.20;100442.79;1741596;81;21136;-72
2021/07/02 10:46:42;;;;;;;4.50;4.03;;;;;;;17.68;78.17;100441.92;1755536;80;21613;-72
2021/07/02 10:49:11;;;;;;;4.53;3.70;;;;;;;17.89;78.12;100441.60;1730230;83;21092;-72
2021/07/02 10:51:45;;;;;;;5.45;3.05;;;;;;;18.13;78.04;100446.22;1754148;81;21007;-72
2021/07/02 10:54:19;;;;;;;4.25;3.85;;;;;;;18.25;77.95;100441.80;1755574;81;21086;-72
2021/07/02 10:57:05;;;;;;;5.22;3.47;;;;;;;18.23;77.83;100441.17;1755256;81;21816;-72
2021/07/02 10:59:44;;;;;;;4.75;4.22;;;;;;;18.11;77.71;100442.93;1757827;81;21002;-72
2021/07/02 11:02:17;;;;;;;8.65;5.05;;;;;;;17.89;77.61;100447.83;1726573;83;20999;-72
2021/07/02 11:04:51;;;;;;;6.25;4.72;;;;;;;17.84;77.62;100437.36;1757532;81;21058;-72
2021/07/02 11:07:25;;;;;;;5.22;4.72;;;;;;;17.97;77.59;100435.96;1758225;81;21018;-72
2021/07/02 11:09:59;;;;;;;4.90;4.20;;;;;;;18.09;77.53;100432.86;1758295;81;21118;-72
2021/07/02 11:12:46;;;;;;;5.22;4.50;;;;;;;18.20;77.43;100432.67;1758138;80;21333;-72
2021/07/02 11:15:17;;;;;;;5.50;4.45;;;;;;;18.19;77.38;100433.20;1758280;81;20995;-72
2021/07/02 11:17:47;;;;;;;6.72;4.40;;;;;;;18.21;77.34;100431.13;1758375;80;21046;-72
2021/07/02 11:20:24;;;;;;;6.85;4.03;;;;;;;18.21;77.30;100436.52;1758038;81;21038;-72
2021/07/02 11:22:53;;;;;;;7.15;4.97;;;;;;;18.27;77.29;100434.29;1758006;81;21814;-72